createdAt,value
2018-08-09T00:02:13.864Z,3.50
2018-08-09T00:04:42.443Z,3.40
2018-08-09T00:07:10.084Z,3.80
2018-08-09T00:09:37.566Z,3.23
2018-08-09T00:12:05.165Z,4.00
2018-08-09T00:14:35.618Z,3.60
2018-08-09T00:17:03.212Z,3.67
2018-08-09T00:19:30.757Z,3.63
2018-08-09T00:21:58.261Z,3.60
2018-08-09T00:24:26.974Z,3.90
2018-08-09T00:26:54.439Z,3.90
2018-08-09T00:29:21.907Z,3.87
2018-08-09T00:31:49.360Z,3.20
2018-08-09T00:34:16.848Z,3.57
2018-08-09T00:36:44.366Z,3.87
2018-08-09T00:39:12.698Z,3.70
2018-08-09T00:41:41.336Z,3.50
2018-08-09T00:44:08.827Z,4.20
2018-08-09T00:46:36.512Z,4.50
2018-08-09T00:49:04.356Z,4.20
2018-08-09T00:51:31.783Z,3.73
2018-08-09T00:53:59.213Z,3.70
2018-08-09T00:56:29.895Z,3.77
2018-08-09T00:58:57.336Z,3.90
2018-08-09T01:01:24.819Z,3.73
2018-08-09T01:03:52.656Z,4.40
2018-08-09T01:06:20.094Z,4.10
2018-08-09T01:08:53.392Z,4.30
2018-08-09T01:11:20.828Z,3.87
2018-08-09T01:13:48.310Z,3.30
2018-08-09T01:16:15.858Z,3.67
2018-08-09T01:18:43.462Z,3.60
2018-08-09T01:21:10.951Z,4.23
2018-08-09T01:23:38.507Z,3.90
2018-08-09T01:26:05.987Z,3.73
2018-08-09T01:28:33.457Z,3.77
2018-08-09T01:31:00.910Z,3.80
2018-08-09T01:33:28.351Z,4.33
2018-08-09T01:35:55.839Z,4.37
2018-08-09T01:38:23.310Z,4.03
2018-08-09T01:40:50.745Z,4.53
2018-08-09T01:43:29.810Z,3.40
2018-08-09T01:45:57.429Z,3.80
2018-08-09T01:48:27.471Z,4.10
2018-08-09T01:50:54.955Z,3.30
2018-08-09T01:53:22.364Z,3.47
2018-08-09T01:55:49.902Z,3.97
2018-08-09T01:58:17.364Z,3.33
2018-08-09T02:00:44.920Z,3.80
2018-08-09T02:03:12.566Z,3.60
2018-08-09T02:05:40.123Z,3.73
2018-08-09T02:08:07.571Z,3.77
2018-08-09T02:10:35.239Z,4.00
2018-08-09T02:13:02.667Z,3.57
2018-08-09T02:15:30.183Z,3.67
2018-08-09T02:17:58.041Z,3.30
2018-08-09T02:20:25.426Z,3.37
2018-08-09T02:22:52.863Z,4.60
2018-08-09T02:25:20.291Z,3.80
2018-08-09T02:27:47.787Z,3.90
2018-08-09T02:30:15.239Z,4.50
2018-08-09T02:32:43.032Z,4.27
2018-08-09T02:35:10.538Z,3.80
2018-08-09T02:37:37.947Z,4.07
2018-08-09T02:40:05.575Z,4.70
2018-08-09T02:42:33.003Z,4.73
2018-08-09T02:45:00.460Z,4.37
2018-08-09T02:47:27.887Z,3.87
2018-08-09T02:49:55.307Z,4.40
2018-08-09T02:52:22.771Z,4.27
2018-08-09T02:54:50.323Z,4.30
2018-08-09T02:57:17.834Z,4.10
2018-08-09T02:59:45.354Z,4.40
2018-08-09T03:02:12.915Z,3.80
2018-08-09T03:04:40.310Z,5.37
2018-08-09T03:07:08.218Z,4.60
2018-08-09T03:09:35.664Z,4.90
2018-08-09T03:12:03.184Z,5.00
2018-08-09T03:14:30.671Z,4.50
2018-08-09T03:16:58.083Z,5.10
2018-08-09T03:19:26.906Z,4.30
2018-08-09T03:21:54.478Z,4.50
2018-08-09T03:24:22.425Z,4.67
2018-08-09T03:26:50.016Z,4.80
2018-08-09T03:29:19.256Z,5.00
2018-08-09T03:31:46.770Z,4.07
2018-08-09T03:34:14.203Z,5.17
2018-08-09T03:36:41.628Z,5.27
2018-08-09T03:39:10.576Z,5.73
2018-08-09T03:41:38.053Z,5.37
2018-08-09T03:44:05.731Z,5.40
2018-08-09T03:46:33.226Z,6.00
2018-08-09T03:49:00.614Z,5.07
2018-08-09T03:51:28.035Z,5.27
2018-08-09T03:53:55.463Z,4.67
2018-08-09T03:56:22.897Z,5.13
2018-08-09T03:58:50.266Z,5.10
2018-08-09T04:01:17.737Z,4.80
2018-08-09T04:03:45.299Z,5.23
2018-08-09T04:06:12.844Z,5.10
2018-08-09T04:08:40.300Z,4.90
2018-08-09T04:11:07.754Z,5.00
2018-08-09T04:13:35.430Z,5.10
2018-08-09T04:16:02.839Z,4.80
2018-08-09T04:18:30.840Z,4.93
2018-08-09T04:20:58.314Z,5.00
2018-08-09T04:23:25.749Z,5.30
2018-08-09T04:25:53.238Z,4.73
2018-08-09T04:28:20.639Z,5.90
2018-08-09T04:30:48.096Z,5.60
2018-08-09T04:33:16.740Z,5.40
2018-08-09T04:35:44.145Z,5.47
2018-08-09T04:38:11.745Z,5.90
2018-08-09T04:40:39.164Z,5.97
2018-08-09T04:43:07.275Z,5.23
2018-08-09T04:45:34.740Z,5.43
2018-08-09T04:48:02.151Z,5.53
2018-08-09T04:50:29.540Z,4.47
2018-08-09T04:52:56.923Z,5.30
2018-08-09T04:55:24.796Z,4.73
2018-08-09T04:57:52.256Z,4.83
2018-08-09T05:00:19.666Z,4.93
2018-08-09T05:02:47.079Z,5.03
2018-08-09T05:05:15.178Z,5.83
2018-08-09T05:07:43.062Z,5.73
2018-08-09T05:10:12.693Z,4.60
2018-08-09T05:12:41.117Z,4.90
2018-08-09T05:15:08.520Z,4.77
2018-08-09T05:17:35.915Z,5.00
2018-08-09T05:20:04.017Z,5.10
2018-08-09T05:22:31.455Z,5.20
2018-08-09T05:24:58.896Z,5.00
2018-08-09T05:27:26.304Z,4.80
2018-08-09T05:29:53.688Z,4.97
2018-08-09T05:32:21.117Z,5.67
2018-08-09T05:34:48.516Z,5.00
2018-08-09T05:37:16.265Z,5.67
2018-08-09T05:39:43.730Z,4.83
2018-08-09T05:42:11.128Z,4.50
2018-08-09T05:44:38.516Z,4.60
2018-08-09T05:47:05.894Z,4.80
2018-08-09T05:49:33.333Z,4.20
2018-08-09T05:52:00.748Z,5.33
2018-08-09T05:54:28.141Z,4.30
2018-08-09T05:56:56.776Z,4.37
2018-08-09T05:59:24.159Z,4.43
2018-08-09T06:01:51.644Z,5.23
2018-08-09T06:04:19.147Z,5.00
2018-08-09T06:06:46.607Z,5.90
2018-08-09T06:09:14.402Z,5.33
2018-08-09T06:11:42.111Z,5.70
2018-08-09T06:14:10.100Z,6.10
2018-08-09T06:16:37.594Z,5.50
2018-08-09T06:19:05.657Z,5.27
2018-08-09T06:21:33.118Z,5.20
2018-08-09T06:24:01.015Z,4.77
2018-08-09T06:26:28.755Z,5.17
2018-08-09T06:28:56.091Z,5.43
2018-08-09T06:31:23.598Z,5.13
2018-08-09T06:33:51.060Z,5.77
2018-08-09T06:36:18.631Z,5.93
2018-08-09T06:38:46.071Z,6.47
2018-08-09T06:41:13.597Z,5.47
2018-08-09T06:43:41.065Z,5.27
2018-08-09T06:46:10.432Z,4.97
2018-08-09T06:48:38.030Z,4.90
2018-08-09T06:51:05.796Z,5.70
2018-08-09T06:53:33.228Z,4.07
2018-08-09T06:56:00.663Z,5.20
2018-08-09T06:58:28.099Z,4.87
2018-08-09T07:00:55.497Z,4.47
2018-08-09T07:03:22.971Z,4.70
2018-08-09T07:05:50.543Z,4.60
2018-08-09T07:08:17.942Z,4.10
2018-08-09T07:10:46.186Z,5.83
2018-08-09T07:13:13.615Z,4.33
2018-08-09T07:15:41.319Z,5.80
2018-08-09T07:18:08.763Z,5.50
2018-08-09T07:20:36.203Z,5.10
2018-08-09T07:23:03.691Z,5.40
2018-08-09T07:25:34.122Z,5.67
2018-08-09T07:28:01.533Z,5.73
2018-08-09T07:30:28.999Z,4.80
2018-08-09T07:32:56.419Z,5.20
2018-08-09T07:35:23.976Z,6.07
2018-08-09T07:37:51.435Z,6.80
2018-08-09T07:40:18.947Z,6.10
2018-08-09T07:42:46.360Z,6.27
2018-08-09T07:45:13.879Z,5.90
2018-08-09T07:47:41.382Z,5.80
2018-08-09T07:50:09.504Z,5.60
2018-08-09T07:52:37.045Z,5.30
2018-08-09T07:55:04.972Z,6.17
2018-08-09T07:57:32.434Z,5.77
2018-08-09T07:59:59.911Z,6.40
2018-08-09T08:02:27.398Z,6.47
2018-08-09T08:04:54.828Z,6.40
2018-08-09T08:07:22.284Z,7.33
2018-08-09T08:09:52.127Z,8.30
2018-08-09T08:12:19.665Z,9.00
2018-08-09T08:14:47.107Z,9.60
2018-08-09T08:17:14.563Z,10.27
2018-08-09T08:19:41.991Z,10.17
2018-08-09T08:22:09.440Z,9.57
2018-08-09T08:24:36.903Z,10.93
2018-08-09T08:27:06.371Z,11.20
2018-08-09T08:29:33.767Z,10.47
2018-08-09T08:32:01.276Z,10.83
2018-08-09T08:34:28.794Z,10.57
2018-08-09T08:36:56.210Z,11.00
2018-08-09T08:39:28.199Z,10.83
2018-08-09T08:41:55.588Z,11.60
2018-08-09T08:44:22.997Z,11.13
2018-08-09T08:46:50.391Z,13.20
2018-08-09T08:49:17.871Z,11.93
2018-08-09T08:51:46.734Z,11.00
2018-08-09T08:54:16.663Z,10.70
2018-08-09T08:56:44.231Z,11.87
2018-08-09T08:59:11.667Z,12.37
2018-08-09T09:01:39.113Z,11.73
2018-08-09T09:04:06.626Z,12.10
2018-08-09T09:06:36.283Z,11.47
2018-08-09T09:09:07.436Z,12.00
2018-08-09T09:11:34.847Z,11.50
2018-08-09T09:14:02.348Z,12.63
2018-08-09T09:16:29.843Z,11.70
2018-08-09T09:19:01.871Z,12.63
2018-08-09T09:21:29.284Z,11.67
2018-08-09T09:23:56.679Z,11.30
2018-08-09T09:26:24.210Z,12.17
2018-08-09T09:28:51.604Z,12.70
2018-08-09T09:31:19.155Z,12.20
2018-08-09T09:33:46.578Z,13.00
2018-08-09T09:36:13.968Z,13.10
2018-08-09T09:38:41.368Z,13.80
2018-08-09T09:41:08.750Z,12.07
2018-08-09T09:43:36.130Z,11.60
2018-08-09T09:46:06.607Z,12.33
2018-08-09T09:48:33.995Z,11.67
2018-08-09T09:51:01.424Z,11.70
2018-08-09T09:53:28.798Z,12.30
2018-08-09T09:55:56.181Z,11.50
2018-08-09T09:58:27.753Z,12.27
2018-08-09T10:01:01.292Z,11.33
2018-08-09T10:03:28.736Z,10.60
2018-08-09T10:05:56.111Z,11.90
2018-08-09T10:08:23.488Z,12.70
2018-08-09T10:10:53.293Z,13.47
2018-08-09T10:13:20.674Z,11.70
2018-08-09T10:15:48.031Z,11.27
2018-08-09T10:18:15.420Z,10.30
2018-08-09T10:20:42.819Z,13.10
2018-08-09T10:23:10.193Z,12.00
2018-08-09T10:25:45.817Z,11.83
2018-08-09T10:28:13.231Z,10.67
2018-08-09T10:30:41.261Z,10.83
2018-08-09T10:33:08.686Z,11.70
2018-08-09T10:35:36.128Z,10.50
2018-08-09T10:38:07.652Z,12.33
2018-08-09T10:40:35.023Z,10.20
2018-08-09T10:43:02.419Z,11.17
2018-08-09T10:45:29.807Z,10.80
2018-08-09T10:47:57.188Z,11.47
2018-08-09T10:50:24.616Z,12.67
2018-08-09T10:52:55.734Z,11.87
2018-08-09T10:55:23.123Z,11.47
2018-08-09T10:57:50.530Z,12.10
2018-08-09T11:00:18.004Z,12.13
2018-08-09T11:02:45.463Z,10.50
2018-08-09T11:05:12.877Z,11.60
2018-08-09T11:07:44.264Z,10.87
2018-08-09T11:10:11.630Z,11.70
2018-08-09T11:12:39.028Z,10.70
2018-08-09T11:15:08.020Z,10.20
2018-08-09T11:17:35.463Z,11.00
2018-08-09T11:20:07.807Z,11.10
2018-08-09T11:22:35.436Z,10.47
2018-08-09T11:25:03.390Z,10.73
2018-08-09T11:27:30.747Z,11.50
2018-08-09T11:29:58.156Z,10.30
2018-08-09T11:32:25.547Z,12.20
2018-08-09T11:34:56.087Z,12.10
2018-08-09T11:37:23.492Z,14.10
2018-08-09T11:39:50.849Z,13.00
2018-08-09T11:42:18.274Z,12.13
2018-08-09T11:44:45.755Z,12.97
2018-08-09T11:47:13.175Z,12.60
2018-08-09T11:49:40.578Z,12.13
2018-08-09T11:52:10.134Z,13.63
2018-08-09T11:54:37.514Z,12.27
2018-08-09T11:57:04.986Z,14.00
2018-08-09T11:59:32.305Z,15.40
2018-08-09T12:01:59.716Z,13.33
2018-08-09T12:06:59.403Z,12.50
2018-08-09T12:09:26.779Z,13.57
2018-08-09T12:11:54.135Z,14.83
2018-08-09T12:14:21.527Z,12.17
2018-08-09T12:16:48.947Z,13.00
2018-08-09T12:19:16.435Z,12.43
2018-08-09T12:21:45.621Z,15.40
2018-08-09T12:24:13.084Z,17.83
2018-08-09T12:26:40.659Z,15.10
2018-08-09T12:29:08.067Z,15.90
2018-08-09T12:31:35.472Z,17.83
2018-08-09T12:34:07.511Z,15.70
2018-08-09T12:36:34.958Z,15.73
2018-08-09T12:39:02.412Z,15.83
2018-08-09T12:41:29.815Z,15.83
2018-08-09T12:43:57.231Z,15.70
2018-08-09T12:46:24.807Z,16.73
2018-08-09T12:48:55.339Z,14.67
2018-08-09T12:51:22.740Z,16.80
2018-08-09T12:53:50.127Z,17.30
2018-08-09T12:56:17.527Z,16.17
2018-08-09T12:58:44.958Z,15.17
2018-08-09T13:01:13.847Z,13.73
2018-08-09T13:03:44.916Z,16.37
2018-08-09T13:06:12.367Z,16.23
2018-08-09T13:08:39.799Z,16.10
2018-08-09T13:11:07.235Z,15.57
2018-08-09T13:13:34.635Z,15.33
2018-08-09T13:16:03.856Z,15.47
2018-08-09T13:18:31.247Z,15.10
2018-08-09T13:20:58.696Z,13.47
2018-08-09T13:23:26.130Z,8.50
2018-08-09T13:25:53.524Z,8.30
2018-08-09T13:28:20.947Z,7.17
2018-08-09T13:30:49.806Z,8.03
2018-08-09T13:33:20.579Z,7.30
2018-08-09T13:35:47.978Z,7.80
2018-08-09T13:38:15.427Z,7.90
2018-08-09T13:40:42.869Z,7.20
2018-08-09T13:43:10.261Z,7.40
2018-08-09T13:45:40.044Z,7.60
2018-08-09T13:48:07.467Z,10.37
2018-08-09T13:50:34.876Z,8.63
2018-08-09T13:53:02.287Z,7.93
2018-08-09T13:55:29.714Z,7.00
2018-08-09T13:58:01.876Z,5.90
2018-08-09T14:00:29.320Z,6.80
2018-08-09T14:02:56.767Z,7.70
2018-08-09T14:05:24.195Z,7.80
2018-08-09T14:07:51.578Z,8.03
2018-08-09T14:10:19.124Z,8.80
2018-08-09T14:12:46.653Z,9.07
2018-08-09T14:15:14.639Z,9.53
2018-08-09T14:17:42.101Z,9.30
2018-08-09T14:20:12.659Z,9.87
2018-08-09T14:22:40.196Z,8.93
2018-08-09T14:25:07.674Z,8.00
2018-08-09T14:27:35.055Z,8.20
2018-08-09T14:30:02.596Z,8.97
2018-08-09T14:32:30.024Z,8.50
2018-08-09T14:34:57.487Z,7.90
2018-08-09T14:37:24.875Z,7.70
2018-08-09T14:39:52.383Z,8.30
2018-08-09T14:42:19.939Z,7.57
2018-08-09T14:44:47.522Z,8.53
2018-08-09T14:47:14.979Z,9.00
2018-08-09T14:49:42.450Z,7.67
2018-08-09T14:52:09.863Z,7.40
2018-08-09T14:54:37.442Z,7.90
2018-08-09T14:57:04.983Z,7.30
2018-08-09T14:59:32.492Z,8.20
2018-08-09T15:01:59.986Z,7.50
2018-08-09T15:04:27.405Z,8.37
2018-08-09T15:06:56.181Z,6.70
2018-08-09T15:09:25.548Z,7.67
2018-08-09T15:11:53.040Z,6.43
2018-08-09T15:14:20.519Z,7.10
2018-08-09T15:16:47.971Z,6.27
2018-08-09T15:19:15.492Z,6.70
2018-08-09T15:21:43.046Z,5.63
2018-08-09T15:24:12.149Z,5.67
2018-08-09T15:26:39.592Z,4.73
2018-08-09T15:29:07.062Z,5.50
2018-08-09T15:31:34.634Z,5.43
2018-08-09T15:34:02.056Z,4.60
2018-08-09T15:36:29.595Z,5.67
2018-08-09T15:38:59.321Z,4.77
2018-08-09T15:41:26.771Z,5.43
2018-08-09T15:43:54.263Z,5.23
2018-08-09T15:46:21.856Z,4.57
2018-08-09T15:48:49.418Z,5.27
2018-08-09T15:51:16.958Z,4.63
2018-08-09T15:53:44.457Z,4.63
2018-08-09T15:56:12.431Z,4.97
2018-08-09T15:58:39.958Z,5.10
2018-08-09T16:01:08.789Z,4.50
2018-08-09T16:03:36.098Z,4.67
2018-08-09T16:06:03.364Z,5.10
2018-08-09T16:08:30.631Z,4.57
2018-08-09T16:10:57.924Z,4.50
2018-08-09T16:13:29.415Z,4.90
2018-08-09T16:15:56.863Z,4.97
2018-08-09T16:18:24.184Z,4.40
2018-08-09T16:20:51.432Z,4.27
2018-08-09T16:23:19.489Z,4.70
2018-08-09T16:25:48.536Z,4.23
2018-08-09T16:28:16.074Z,4.53
2018-08-09T16:30:43.353Z,4.10
2018-08-09T16:33:10.684Z,4.30
2018-08-09T16:35:38.049Z,4.47
2018-08-09T16:38:05.299Z,4.43
2018-08-09T16:40:32.544Z,4.13
2018-08-09T16:43:01.476Z,4.33
2018-08-09T16:45:28.734Z,4.30
2018-08-09T16:47:56.075Z,3.97
2018-08-09T16:50:26.218Z,4.40
2018-08-09T16:52:53.568Z,4.47
2018-08-09T16:55:22.224Z,3.77
2018-08-09T16:57:49.582Z,3.43
2018-08-09T17:00:18.977Z,3.77
2018-08-09T17:02:46.552Z,3.70
2018-08-09T17:05:17.078Z,3.43
2018-08-09T17:07:44.569Z,3.70
2018-08-09T17:10:13.480Z,2.80
2018-08-09T17:12:41.120Z,3.57
2018-08-09T17:15:15.525Z,3.27
2018-08-09T17:17:42.928Z,3.43
2018-08-09T17:20:24.767Z,3.70
2018-08-09T17:22:52.235Z,3.70
2018-08-09T17:25:19.812Z,3.60
2018-08-09T17:27:48.106Z,3.33
2018-08-09T17:30:20.683Z,3.50
2018-08-09T17:32:50.305Z,3.43
2018-08-09T17:35:18.445Z,3.80
2018-08-09T17:37:46.007Z,3.20
2018-08-09T17:40:16.101Z,3.50
2018-08-09T17:42:43.578Z,3.20
2018-08-09T17:45:15.917Z,2.87
2018-08-09T17:47:43.961Z,3.40
2018-08-09T17:50:11.399Z,3.13
2018-08-09T17:52:39.043Z,3.03
2018-08-09T17:55:09.227Z,2.63
2018-08-09T17:57:36.455Z,3.70
2018-08-09T18:00:07.124Z,3.13
2018-08-09T18:02:34.360Z,3.10
2018-08-09T18:05:01.684Z,3.27
2018-08-09T18:07:28.900Z,2.97
2018-08-09T18:09:56.176Z,3.60
2018-08-09T18:12:23.533Z,3.10
2018-08-09T18:14:52.971Z,3.10
2018-08-09T18:17:22.670Z,2.93
2018-08-09T18:19:50.775Z,3.03
2018-08-09T18:22:18.153Z,3.57
2018-08-09T18:24:45.580Z,3.67
2018-08-09T18:27:12.995Z,3.00
2018-08-09T18:29:40.379Z,3.30
2018-08-09T18:32:07.785Z,3.50
2018-08-09T18:34:35.185Z,4.10
2018-08-09T18:37:02.482Z,4.27
2018-08-09T18:39:29.769Z,3.70
2018-08-09T18:41:57.057Z,3.60
2018-08-09T18:44:24.316Z,3.80
2018-08-09T18:46:51.590Z,3.37
2018-08-09T18:49:19.019Z,3.07
2018-08-09T18:51:46.291Z,3.60
2018-08-09T18:54:13.555Z,3.63
2018-08-09T18:56:40.834Z,3.37
2018-08-09T18:59:08.118Z,3.40
2018-08-09T19:01:35.386Z,3.33
2018-08-09T19:04:02.651Z,3.80
2018-08-09T19:06:29.882Z,3.40
2018-08-09T19:08:57.412Z,3.43
2018-08-09T19:11:24.792Z,4.00
2018-08-09T19:13:52.807Z,4.30
2018-08-09T19:16:20.259Z,3.67
2018-08-09T19:18:47.520Z,4.00
2018-08-09T19:21:14.787Z,4.00
2018-08-09T19:23:42.031Z,4.00
2018-08-09T19:26:09.343Z,4.50
2018-08-09T19:28:36.567Z,4.60
2018-08-09T19:31:03.815Z,4.00
2018-08-09T19:33:31.129Z,3.63
2018-08-09T19:35:58.374Z,3.10
2018-08-09T19:38:25.627Z,2.83
2018-08-09T19:40:52.875Z,3.80
2018-08-09T19:43:20.319Z,3.43
2018-08-09T19:45:47.904Z,2.60
2018-08-09T19:48:15.270Z,2.87
2018-08-09T19:50:42.759Z,2.80
2018-08-09T19:53:10.072Z,3.23
2018-08-09T19:55:37.317Z,3.37
2018-08-09T19:58:04.624Z,2.97
2018-08-09T20:00:31.849Z,2.77
2018-08-09T20:02:59.110Z,2.70
2018-08-09T20:05:26.375Z,2.47
2018-08-09T20:07:53.828Z,3.07
2018-08-09T20:10:21.162Z,2.83
2018-08-09T20:12:48.797Z,2.40
2018-08-09T20:15:19.151Z,2.43
2018-08-09T20:18:18.054Z,2.60
2018-08-09T20:20:46.557Z,2.80
2018-08-09T20:23:13.972Z,2.40
2018-08-09T20:25:41.308Z,2.37
2018-08-09T20:28:08.603Z,2.33
2018-08-09T20:30:35.840Z,2.77
2018-08-09T20:33:03.383Z,2.27
2018-08-09T20:35:30.671Z,2.10
2018-08-09T20:37:58.519Z,2.70
2018-08-09T20:40:25.787Z,3.00
2018-08-09T20:42:53.731Z,2.50
2018-08-09T20:45:22.052Z,3.30
2018-08-09T20:47:49.348Z,3.40
2018-08-09T20:50:19.123Z,3.70
2018-08-09T20:52:47.194Z,2.47
2018-08-09T20:55:14.520Z,3.80
2018-08-09T20:57:42.751Z,3.03
2018-08-09T21:00:14.910Z,3.17
2018-08-09T21:02:42.898Z,3.50
2018-08-09T21:05:16.028Z,3.07
2018-08-09T21:07:43.330Z,3.40
2018-08-09T21:10:10.631Z,2.87
2018-08-09T21:12:37.962Z,2.87
2018-08-09T21:15:06.131Z,2.30
2018-08-09T21:17:33.401Z,2.70
2018-08-09T21:20:00.675Z,2.40
2018-08-09T21:22:28.153Z,1.67
2018-08-09T21:24:55.439Z,1.63
2018-08-09T21:27:22.801Z,1.90
2018-08-09T21:29:50.015Z,2.30
2018-08-09T21:32:17.222Z,2.03
2018-08-09T21:34:44.459Z,1.40
2018-08-09T21:37:11.687Z,1.93
2018-08-09T21:39:38.956Z,2.00
2018-08-09T21:42:06.207Z,2.37
2018-08-09T21:44:33.512Z,1.73
2018-08-09T21:47:00.827Z,1.90
2018-08-09T21:49:28.065Z,1.90
2018-08-09T21:51:55.333Z,2.20
2018-08-09T21:54:22.603Z,1.97
2018-08-09T21:56:49.947Z,2.37
2018-08-09T21:59:17.411Z,2.07
2018-08-09T22:01:44.749Z,1.97
2018-08-09T22:04:12.033Z,2.10
2018-08-09T22:08:47.147Z,1.90
2018-08-09T22:11:20.314Z,1.57
2018-08-09T22:13:53.676Z,1.63
2018-08-09T22:16:26.776Z,1.90
2018-08-09T22:20:00.280Z,1.07
2018-08-09T22:22:27.564Z,1.50
2018-08-09T22:24:54.851Z,2.10
2018-08-09T22:27:22.180Z,1.20
2018-08-09T22:29:49.507Z,1.53
2018-08-09T22:32:16.891Z,1.70
2018-08-09T22:34:44.149Z,1.23
2018-08-09T22:37:11.436Z,1.40
2018-08-09T22:39:38.738Z,1.30
2018-08-09T22:42:06.173Z,1.77
2018-08-09T22:44:33.440Z,1.30
2018-08-09T22:47:00.798Z,1.57
2018-08-09T22:49:28.099Z,1.13
2018-08-09T22:51:55.320Z,1.40
2018-08-09T22:54:22.719Z,1.00
2018-08-09T22:56:50.191Z,0.83
2018-08-09T22:59:18.200Z,1.00
2018-08-09T23:01:45.535Z,0.87
2018-08-09T23:04:13.253Z,0.87
2018-08-09T23:06:40.680Z,0.70
2018-08-09T23:09:08.901Z,0.73
2018-08-09T23:11:36.257Z,0.47
2018-08-09T23:14:03.742Z,0.50
2018-08-09T23:16:31.074Z,0.60
2018-08-09T23:18:58.349Z,1.00
2018-08-09T23:21:25.624Z,0.60
2018-08-09T23:26:25.412Z,0.63
2018-08-09T23:28:52.688Z,0.80
2018-08-09T23:31:20.090Z,1.47
2018-08-09T23:33:47.379Z,0.77
2018-08-09T23:36:14.773Z,0.87
2018-08-09T23:38:42.059Z,0.70
2018-08-09T23:41:09.346Z,0.90
2018-08-09T23:55:27.477Z,0.93
2018-08-09T23:57:55.016Z,0.90
